Time;durP1;ratioP1;P1;durP2;ratioP2;P2;SDS_P1;SDS_P2;PMS_P1;PMS_P2;Temp;Humidity;BMP_temperature;BMP_pressure;BME280_temperature;BME280_humidity;BME280_pressure;Samples;Min_cycle;Max_cycle;Signal;HPM_P1;HPM_P2
2022/11/26 00:01:40;;;;;;;15.15;4.20;;;6.40;99.90;;;;;;4233641;28;20121;-85
2022/11/26 00:03:41;;;;;;;16.77;3.80;;;6.40;99.90;;;;;;4216107;28;20048;-86
2022/11/26 00:05:47;;;;;;;14.77;3.97;;;6.40;99.90;;;;;;4234046;28;20040;-86
2022/11/26 00:07:54;;;;;;;13.93;3.13;;;6.60;99.90;;;;;;4234975;28;20507;-85
2022/11/26 00:09:56;;;;;;;17.15;4.30;;;6.40;99.90;;;;;;4234306;28;20044;-85
2022/11/26 00:11:58;;;;;;;22.88;3.90;;;6.40;99.90;;;;;;4250570;27;20557;-86
2022/11/26 00:13:59;;;;;;;11.10;3.15;;;6.30;99.90;;;;;;4233008;28;20093;-85
2022/11/26 00:16:00;;;;;;;18.38;3.42;;;6.30;99.90;;;;;;4234398;28;20530;-85
2022/11/26 00:18:02;;;;;;;12.48;2.80;;;6.30;99.90;;;;;;4234662;28;20065;-85
2022/11/26 00:20:04;;;;;;;15.40;3.08;;;6.30;99.90;;;;;;4215823;28;20082;-85
2022/11/26 00:22:06;;;;;;;14.25;3.88;;;6.30;99.90;;;;;;4233024;28;20047;-85
2022/11/26 00:24:27;;;;;;;18.63;3.10;;;6.30;99.90;;;;;;4232294;28;20063;-85
2022/11/26 00:26:28;;;;;;;10.80;3.35;;;6.30;99.90;;;;;;4231666;28;20499;-85
2022/11/26 00:28:34;;;;;;;16.52;3.97;;;6.30;99.90;;;;;;4230869;28;20050;-85
2022/11/26 00:30:35;;;;;;;12.48;3.35;;;6.30;99.90;;;;;;4233174;28;20048;-85
2022/11/26 00:32:37;;;;;;;14.30;3.17;;;6.20;99.90;;;;;;4231351;28;20142;-85
2022/11/26 00:34:38;;;;;;;13.52;3.40;;;6.20;99.90;;;;;;4232159;28;20043;-86
2022/11/26 00:36:38;;;;;;;16.60;3.55;;;6.30;99.90;;;;;;4233762;28;20050;-85
2022/11/26 00:38:39;;;;;;;11.73;2.80;;;6.20;99.90;;;;;;4232124;28;20035;-85
2022/11/26 00:40:40;;;;;;;14.70;2.83;;;6.20;99.90;;;;;;4232640;28;20561;-85
2022/11/26 00:42:42;;;;;;;17.17;3.83;;;6.20;99.90;;;;;;4233171;28;20075;-85
2022/11/26 00:44:44;;;;;;;16.10;2.88;;;6.30;99.90;;;;;;4231879;28;20047;-85
2022/11/26 00:46:45;;;;;;;11.57;2.88;;;6.20;99.90;;;;;;4233695;28;20527;-85
2022/11/26 00:48:46;;;;;;;14.85;3.55;;;6.20;99.90;;;;;;4214822;28;20044;-85
2022/11/26 00:50:49;;;;;;;18.85;3.38;;;6.20;99.90;;;;;;4241712;27;20055;-86
2022/11/26 00:52:55;;;;;;;10.20;2.83;;;6.20;99.90;;;;;;4231451;28;20180;-86
2022/11/26 00:54:55;;;;;;;12.05;3.08;;;6.20;99.90;;;;;;4249508;27;20036;-85
2022/11/26 00:56:56;;;;;;;16.95;2.97;;;6.30;99.90;;;;;;4216241;28;20409;-86
2022/11/26 00:58:58;;;;;;;19.65;3.00;;;6.20;99.90;;;;;;4250743;27;20049;-86
2022/11/26 01:00:59;;;;;;;15.48;3.58;;;6.10;99.90;;;;;;4216065;28;20048;-85
2022/11/26 01:03:01;;;;;;;17.55;3.22;;;6.10;99.90;;;;;;4250217;27;20064;-85
2022/11/26 01:05:03;;;;;;;10.07;3.50;;;6.10;99.90;;;;;;4217659;28;20126;-86
2022/11/26 01:07:03;;;;;;;22.08;3.08;;;6.10;99.90;;;;;;4234312;28;20097;-86
2022/11/26 01:09:06;;;;;;;15.00;3.00;;;6.10;99.90;;;;;;4234291;28;20113;-85
2022/11/26 01:11:15;;;;;;;14.68;3.92;;;6.10;99.90;;;;;;4251413;27;20071;-86
2022/11/26 01:13:17;;;;;;;12.75;2.65;;;6.10;99.90;;;;;;4251210;27;20484;-85
2022/11/26 01:15:20;;;;;;;15.55;3.47;;;6.10;99.90;;;;;;4251470;27;20084;-86
2022/11/26 01:17:21;;;;;;;11.27;3.30;;;6.10;99.90;;;;;;4214779;28;20540;-86
2022/11/26 01:19:22;;;;;;;17.98;3.40;;;6.10;99.90;;;;;;4231593;28;20043;-86
2022/11/26 01:21:26;;;;;;;20.92;4.18;;;6.00;99.90;;;;;;4250107;27;20042;-85
2022/11/26 01:23:28;;;;;;;16.10;3.45;;;6.10;99.90;;;;;;4249218;27;20043;-86
2022/11/26 01:25:28;;;;;;;11.80;2.78;;;6.00;99.90;;;;;;4249095;27;20061;-85
2022/11/26 01:27:31;;;;;;;14.05;3.22;;;6.00;99.90;;;;;;4230886;28;20095;-86
2022/11/26 01:29:32;;;;;;;13.88;3.45;;;6.00;99.90;;;;;;4230025;28;20102;-85
2022/11/26 01:31:33;;;;;;;15.00;3.22;;;6.00;99.90;;;;;;4249239;27;20039;-86
2022/11/26 01:33:35;;;;;;;13.32;3.08;;;6.00;99.90;;;;;;4230764;28;20063;-86
2022/11/26 01:35:36;;;;;;;9.23;2.58;;;6.60;99.90;;;;;;4248909;27;20118;-86
2022/11/26 01:37:38;;;;;;;15.32;3.75;;;6.00;99.90;;;;;;4213770;28;20048;-86
2022/11/26 01:39:39;;;;;;;29.17;4.50;;;6.10;99.90;;;;;;4248739;27;20538;-86
2022/11/26 01:42:33;;;;;;;21.75;3.20;;;6.00;99.90;;;;;;4248439;27;20047;-86
2022/11/26 01:44:36;;;;;;;15.70;3.53;;;6.00;99.90;;;;;;4163350;28;20045;-85
2022/11/26 01:46:38;;;;;;;16.73;4.13;;;6.00;99.90;;;;;;4179796;28;20041;-86
2022/11/26 01:48:39;;;;;;;16.30;3.67;;;6.00;99.90;;;;;;4163538;28;20075;-86
2022/11/26 01:51:04;;;;;;;20.70;3.83;;;6.00;99.90;;;;;;4228161;28;20123;-85
2022/11/26 01:53:18;;;;;;;18.52;3.20;;;5.90;99.90;;;;;;4248806;27;20039;-85
2022/11/26 01:55:19;;;;;;;21.15;4.00;;;6.50;99.90;;;;;;4230252;28;20044;-86
2022/11/26 01:57:27;;;;;;;16.85;3.83;;;5.90;99.90;;;;;;4213553;28;20071;-85
2022/11/26 01:59:33;;;;;;;9.37;3.50;;;5.90;99.90;;;;;;4248487;27;20478;-86
2022/11/26 02:01:35;;;;;;;12.02;3.50;;;6.00;99.90;;;;;;4213718;28;20043;-86
2022/11/26 02:04:26;;;;;;;9.95;2.90;;;5.90;99.90;;;;;;4248617;27;20035;-85
2022/11/26 02:06:31;;;;;;;9.93;3.95;;;6.00;99.90;;;;;;4243614;27;20066;-86
2022/11/26 02:08:33;;;;;;;16.77;3.85;;;6.00;99.90;;;;;;4248178;27;20105;-86
2022/11/26 02:10:34;;;;;;;15.57;3.08;;;6.00;99.90;;;;;;4230445;28;20463;-86
2022/11/26 02:12:36;;;;;;;13.23;3.55;;;6.00;99.90;;;;;;4248959;27;20046;-86
2022/11/26 02:14:43;;;;;;;17.02;3.70;;;6.00;99.90;;;;;;4213280;28;20050;-86
2022/11/26 02:17:22;;;;;;;15.27;3.67;;;6.00;99.90;;;;;;4229461;28;20051;-86
2022/11/26 02:19:53;;;;;;;11.13;2.80;;;6.00;99.90;;;;;;4248355;27;20039;-86
2022/11/26 02:22:16;;;;;;;21.45;3.28;;;6.00;99.90;;;;;;4230568;28;20054;-85
2022/11/26 02:24:26;;;;;;;18.00;3.35;;;6.00;99.90;;;;;;4192233;28;20193;-85
2022/11/26 02:26:59;;;;;;;12.55;2.97;;;6.00;99.90;;;;;;4229804;28;20120;-86
2022/11/26 02:29:19;;;;;;;16.02;3.20;;;6.00;99.90;;;;;;4248246;27;20039;-86
2022/11/26 02:31:38;;;;;;;13.57;2.85;;;6.00;99.90;;;;;;4229987;28;20051;-85
2022/11/26 02:33:51;;;;;;;11.77;3.10;;;6.00;99.90;;;;;;4215900;28;20102;-86
2022/11/26 02:35:57;;;;;;;19.02;3.63;;;6.00;99.90;;;;;;4196324;28;20127;-86
2022/11/26 02:38:19;;;;;;;17.15;3.55;;;6.00;99.90;;;;;;4213139;28;20059;-86
2022/11/26 02:40:21;;;;;;;17.13;4.05;;;6.00;99.90;;;;;;4196249;28;20059;-86
2022/11/26 02:42:40;;;;;;;18.88;4.15;;;5.90;99.90;;;;;;4196409;28;20076;-85
2022/11/26 02:44:43;;;;;;;;;;;6.10;99.90;;;;;;4231043;28;20461;-86
2022/11/26 02:46:48;;;;;;;16.25;3.28;;;6.00;99.90;;;;;;4196457;28;19920;-86
2022/11/26 02:48:51;;;;;;;17.13;4.80;;;5.90;99.90;;;;;;4213270;28;20516;-86
2022/11/26 02:50:59;;;;;;;12.43;3.55;;;6.00;99.90;;;;;;4230861;28;20131;-86
2022/11/26 02:53:02;;;;;;;18.10;3.35;;;5.90;99.90;;;;;;4233804;28;20407;-85
2022/11/26 02:55:06;;;;;;;15.95;3.70;;;6.00;99.90;;;;;;4234454;28;20051;-85
2022/11/26 02:57:12;;;;;;;13.35;3.33;;;6.00;99.90;;;;;;4234385;28;20046;-86
2022/11/26 02:59:13;;;;;;;14.18;3.05;;;6.00;99.90;;;;;;4216441;28;20163;-85
2022/11/26 03:01:27;;;;;;;9.77;3.55;;;6.00;99.90;;;;;;4233908;28;20399;-85
2022/11/26 03:03:33;;;;;;;14.90;4.07;;;6.00;99.90;;;;;;4216226;28;20051;-85
2022/11/26 03:05:38;;;;;;;17.70;4.07;;;6.00;99.90;;;;;;4216022;28;20082;-85
2022/11/26 03:07:40;;;;;;;21.50;3.47;;;6.40;99.90;;;;;;4216496;28;20067;-85
2022/11/26 03:09:53;;;;;;;16.67;3.95;;;6.00;99.90;;;;;;4216155;28;20115;-86
2022/11/26 03:11:53;;;;;;;18.27;3.00;;;6.00;99.90;;;;;;4234194;28;20487;-85
2022/11/26 03:13:54;;;;;;;18.08;3.47;;;6.00;99.90;;;;;;4216039;28;20043;-85
2022/11/26 03:15:56;;;;;;;11.80;4.35;;;6.00;99.90;;;;;;4234172;28;20507;-85
2022/11/26 03:17:57;;;;;;;19.80;3.53;;;5.90;99.90;;;;;;4234134;28;20127;-86
2022/11/26 03:19:58;;;;;;;11.20;3.50;;;6.00;99.90;;;;;;4233913;28;20514;-86
2022/11/26 03:22:00;;;;;;;11.73;3.85;;;6.50;99.90;;;;;;4215778;28;20056;-85
2022/11/26 03:24:06;;;;;;;11.35;3.28;;;6.00;99.90;;;;;;4215688;28;20053;-86
2022/11/26 03:26:07;;;;;;;12.48;3.33;;;6.00;99.90;;;;;;4198870;28;20052;-85
2022/11/26 03:28:07;;;;;;;16.02;3.20;;;6.00;99.90;;;;;;4216267;28;20135;-85
2022/11/26 03:30:09;;;;;;;14.80;3.72;;;6.00;99.90;;;;;;4215749;28;20127;-86
2022/11/26 03:32:10;;;;;;;19.50;4.47;;;6.00;99.90;;;;;;4234018;28;20111;-86
2022/11/26 03:34:12;;;;;;;21.98;4.57;;;6.00;99.90;;;;;;4198963;28;20044;-86
2022/11/26 03:36:14;;;;;;;15.75;3.65;;;6.30;99.90;;;;;;4215108;28;20086;-86
2022/11/26 03:38:15;;;;;;;12.48;4.28;;;6.00;99.90;;;;;;4233458;28;20039;-85
2022/11/26 03:40:17;;;;;;;18.08;3.95;;;6.00;99.90;;;;;;4233483;28;20127;-85
2022/11/26 03:42:18;;;;;;;18.00;4.70;;;5.90;99.90;;;;;;4233464;28;20051;-85
2022/11/26 03:44:19;;;;;;;19.58;4.35;;;5.90;99.90;;;;;;4198505;28;20052;-85
2022/11/26 03:46:20;;;;;;;15.23;4.00;;;5.90;99.90;;;;;;4233469;28;20044;-86
2022/11/26 03:48:21;;;;;;;14.15;3.65;;;5.90;99.90;;;;;;4215050;28;20044;-85
2022/11/26 03:50:22;;;;;;;20.27;4.10;;;5.90;99.90;;;;;;4233020;28;20524;-85
2022/11/26 03:52:23;;;;;;;20.10;4.35;;;5.90;99.90;;;;;;4233422;28;20137;-85
2022/11/26 03:54:25;;;;;;;14.15;4.53;;;5.90;99.90;;;;;;4233649;28;20040;-85
2022/11/26 03:56:26;;;;;;;14.98;4.07;;;5.90;99.90;;;;;;4215497;28;20527;-86
2022/11/26 03:58:27;;;;;;;17.38;3.40;;;5.90;99.90;;;;;;4215051;28;20047;-86
2022/11/26 04:00:27;;;;;;;16.52;3.67;;;6.20;99.90;;;;;;4215653;28;20089;-85
2022/11/26 04:02:28;;;;;;;19.95;4.32;;;5.80;99.90;;;;;;4232984;28;20047;-85
2022/11/26 04:04:29;;;;;;;13.50;4.20;;;5.80;99.90;;;;;;4233047;28;20332;-86
2022/11/26 04:06:31;;;;;;;11.90;3.92;;;5.80;99.90;;;;;;4215380;28;20052;-85
2022/11/26 04:08:33;;;;;;;17.00;3.63;;;5.80;99.90;;;;;;4198803;28;20044;-85
2022/11/26 04:10:35;;;;;;;19.13;3.80;;;5.80;99.90;;;;;;4233494;28;20047;-85
2022/11/26 04:12:35;;;;;;;21.10;4.97;;;5.80;99.90;;;;;;4233316;28;20057;-85
2022/11/26 04:14:37;;;;;;;15.98;3.40;;;5.80;99.90;;;;;;4198792;28;20048;-85
2022/11/26 04:16:39;;;;;;;16.67;4.47;;;5.80;99.90;;;;;;4215439;28;20467;-85
2022/11/26 04:18:41;;;;;;;20.05;5.70;;;5.80;99.90;;;;;;4214986;28;20055;-86
2022/11/26 04:20:42;;;;;;;19.63;4.60;;;5.80;99.90;;;;;;4199244;28;20040;-85
2022/11/26 04:22:43;;;;;;;13.10;3.72;;;5.80;99.90;;;;;;4215509;28;20447;-85
2022/11/26 04:24:44;;;;;;;14.93;3.97;;;5.90;99.90;;;;;;4215727;28;20075;-86
2022/11/26 04:26:46;;;;;;;18.27;3.80;;;5.80;99.90;;;;;;4198199;28;20048;-85
2022/11/26 04:28:49;;;;;;;20.05;4.47;;;5.80;99.90;;;;;;4198655;28;20048;-86
2022/11/26 04:30:51;;;;;;;22.88;4.38;;;5.80;99.90;;;;;;4215683;28;20052;-86
2022/11/26 04:32:52;;;;;;;11.88;3.28;;;5.90;99.90;;;;;;4215443;28;20044;-86
2022/11/26 04:34:54;;;;;;;16.25;3.65;;;5.80;99.90;;;;;;4233713;27;20465;-86
2022/11/26 04:36:55;;;;;;;16.50;3.67;;;5.80;99.90;;;;;;4208778;28;20406;-85
2022/11/26 04:38:57;;;;;;;21.58;4.53;;;6.00;99.90;;;;;;4215000;28;20043;-85
2022/11/26 04:40:59;;;;;;;21.75;4.28;;;5.80;99.90;;;;;;4231987;28;20491;-86
2022/11/26 04:43:00;;;;;;;14.63;4.00;;;5.80;99.90;;;;;;4215294;28;20090;-85
2022/11/26 04:45:03;;;;;;;18.80;4.45;;;5.80;99.90;;;;;;4214470;28;20060;-86
2022/11/26 04:47:05;;;;;;;21.70;4.55;;;5.80;99.90;;;;;;4214503;28;20048;-86
2022/11/26 04:49:05;;;;;;;18.77;3.80;;;5.80;99.90;;;;;;4232492;28;20148;-85
2022/11/26 04:51:06;;;;;;;22.75;4.63;;;5.80;99.90;;;;;;4214759;28;20067;-86
2022/11/26 04:53:08;;;;;;;15.45;4.35;;;5.80;99.90;;;;;;4215914;28;20055;-86
2022/11/26 04:55:09;;;;;;;19.70;3.92;;;5.80;99.90;;;;;;4214883;28;20408;-86
2022/11/26 04:57:10;;;;;;;19.98;6.40;;;5.80;99.90;;;;;;4197792;28;20047;-86
2022/11/26 04:59:11;;;;;;;19.08;3.85;;;5.80;99.90;;;;;;4214396;28;20048;-86
2022/11/26 05:01:14;;;;;;;12.98;3.97;;;5.70;99.90;;;;;;4198465;28;20456;-85
2022/11/26 05:03:15;;;;;;;18.15;4.45;;;5.70;99.90;;;;;;4213998;28;20048;-85
2022/11/26 05:05:16;;;;;;;19.80;5.40;;;5.70;99.90;;;;;;4215449;28;20051;-85
2022/11/26 05:07:17;;;;;;;19.00;6.00;;;5.70;99.90;;;;;;4215413;28;20044;-85
2022/11/26 05:09:18;;;;;;;18.98;4.32;;;5.60;99.90;;;;;;4197424;28;20451;-85
2022/11/26 05:11:18;;;;;;;14.98;4.22;;;5.70;99.90;;;;;;4214739;28;20051;-85
2022/11/26 05:13:20;;;;;;;12.30;4.38;;;5.60;99.90;;;;;;4215326;28;20514;-85
2022/11/26 05:15:21;;;;;;;24.92;5.95;;;5.60;99.90;;;;;;4213995;28;20044;-85
2022/11/26 05:17:23;;;;;;;21.23;5.50;;;5.60;99.90;;;;;;4214662;28;20077;-85
2022/11/26 05:19:24;;;;;;;17.00;5.22;;;5.60;99.90;;;;;;4197425;28;20131;-85
2022/11/26 05:21:26;;;;;;;16.35;4.00;;;5.50;99.90;;;;;;4215106;28;20040;-85
2022/11/26 05:23:27;;;;;;;24.83;4.72;;;5.50;99.90;;;;;;4215332;28;20484;-85
2022/11/26 05:25:29;;;;;;;23.92;5.78;;;5.80;99.90;;;;;;4215772;28;20101;-85
2022/11/26 05:27:30;;;;;;;20.30;4.85;;;5.50;99.90;;;;;;4196977;28;20210;-84
2022/11/26 05:29:32;;;;;;;13.90;4.03;;;5.50;99.90;;;;;;4215058;28;20067;-84
2022/11/26 05:31:33;;;;;;;23.05;5.15;;;5.50;99.90;;;;;;4215059;28;20051;-85
2022/11/26 05:33:35;;;;;;;12.60;4.10;;;5.40;99.90;;;;;;4213686;28;20105;-85
2022/11/26 05:35:37;;;;;;;13.48;3.95;;;5.40;99.90;;;;;;4215161;28;20044;-85
2022/11/26 05:37:37;;;;;;;15.60;4.97;;;5.40;99.90;;;;;;4197111;28;20052;-85
2022/11/26 05:39:39;;;;;;;19.60;4.57;;;5.40;99.90;;;;;;4196639;28;20126;-86
2022/11/26 05:41:40;;;;;;;13.80;4.60;;;5.40;99.90;;;;;;4213912;28;20052;-85
2022/11/26 05:43:40;;;;;;;12.63;4.28;;;5.90;99.90;;;;;;4214957;28;20539;-85
2022/11/26 05:45:41;;;;;;;22.77;5.28;;;5.40;99.90;;;;;;4214873;28;20044;-86
2022/11/26 05:47:42;;;;;;;12.90;5.45;;;5.40;99.90;;;;;;4213124;28;20044;-85
2022/11/26 05:49:44;;;;;;;20.38;5.53;;;5.50;99.90;;;;;;4213327;28;20123;-85
2022/11/26 05:51:44;;;;;;;21.05;4.55;;;5.50;99.90;;;;;;4196812;28;20638;-85
2022/11/26 05:53:45;;;;;;;20.38;4.35;;;5.50;99.90;;;;;;4214963;28;20048;-84
2022/11/26 05:55:47;;;;;;;15.77;5.40;;;5.50;99.90;;;;;;4200633;28;20063;-85
2022/11/26 05:57:47;;;;;;;14.48;4.65;;;5.50;99.90;;;;;;4213180;28;20036;-85
2022/11/26 05:59:49;;;;;;;18.80;5.43;;;5.50;99.90;;;;;;4213410;28;20182;-85
2022/11/26 06:01:50;;;;;;;22.80;5.00;;;5.60;99.90;;;;;;4213639;28;20050;-85
2022/11/26 06:03:52;;;;;;;18.10;5.55;;;5.50;99.90;;;;;;4213388;28;20040;-86
2022/11/26 06:05:52;;;;;;;25.58;5.10;;;5.50;99.90;;;;;;4213623;28;20051;-85
2022/11/26 06:07:53;;;;;;;20.05;5.00;;;5.50;99.90;;;;;;4222618;28;20408;-85
2022/11/26 06:09:55;;;;;;;18.85;4.97;;;5.50;99.90;;;;;;4230593;28;20040;-86
2022/11/26 06:11:56;;;;;;;18.40;4.65;;;5.50;99.90;;;;;;4213236;28;20427;-85
2022/11/26 06:13:57;;;;;;;21.48;5.53;;;5.50;99.90;;;;;;4230054;28;20454;-85
2022/11/26 06:15:58;;;;;;;17.13;5.28;;;5.50;99.90;;;;;;4232514;28;20042;-85
2022/11/26 06:17:59;;;;;;;22.20;5.00;;;6.10;99.90;;;;;;4231499;28;20438;-85
2022/11/26 06:19:59;;;;;;;16.83;4.80;;;5.50;99.90;;;;;;4231755;28;20081;-85
2022/11/26 06:22:01;;;;;;;16.58;5.55;;;5.60;99.90;;;;;;4232323;28;20053;-86
2022/11/26 06:24:03;;;;;;;18.20;5.05;;;5.40;99.90;;;;;;4231375;28;20093;-86
2022/11/26 06:26:09;;;;;;;21.63;4.88;;;5.40;99.90;;;;;;4231069;28;20044;-86
2022/11/26 06:28:10;;;;;;;12.73;5.03;;;5.40;99.90;;;;;;4231801;28;20122;-86
2022/11/26 06:30:12;;;;;;;17.65;4.65;;;5.40;99.90;;;;;;4232193;28;20044;-86
2022/11/26 06:32:14;;;;;;;12.98;5.22;;;5.40;99.90;;;;;;4231546;28;20047;-85
2022/11/26 06:34:15;;;;;;;22.45;5.15;;;5.30;99.90;;;;;;4230957;28;20054;-86
2022/11/26 06:36:17;;;;;;;16.58;4.90;;;5.30;99.90;;;;;;4230730;28;20058;-85
2022/11/26 06:38:19;;;;;;;18.90;5.88;;;5.30;99.90;;;;;;4229859;28;20217;-85
2022/11/26 06:40:20;;;;;;;21.88;4.85;;;5.30;99.90;;;;;;4230531;28;20047;-87
2022/11/26 06:42:20;;;;;;;20.45;5.97;;;5.30;99.90;;;;;;4229703;28;20127;-85
2022/11/26 06:44:22;;;;;;;18.88;4.65;;;5.30;99.90;;;;;;4230903;28;20054;-86
2022/11/26 06:46:23;;;;;;;16.90;5.25;;;5.30;99.90;;;;;;4230610;28;20425;-86
2022/11/26 06:48:24;;;;;;;17.20;5.95;;;5.30;99.90;;;;;;4228755;28;20043;-86
2022/11/26 06:50:25;;;;;;;20.08;5.55;;;5.30;99.90;;;;;;4229258;28;20063;-86
2022/11/26 06:52:26;;;;;;;19.30;6.28;;;5.30;99.90;;;;;;4229692;28;20521;-86
2022/11/26 06:54:26;;;;;;;13.23;4.95;;;5.30;99.90;;;;;;4229486;28;20492;-86
2022/11/26 06:56:27;;;;;;;18.15;5.95;;;5.30;99.90;;;;;;4229037;28;20456;-86
2022/11/26 06:58:28;;;;;;;16.30;5.20;;;5.30;99.90;;;;;;4230725;28;20040;-84
2022/11/26 07:00:29;;;;;;;18.85;6.13;;;5.30;99.90;;;;;;4228701;28;20077;-86
2022/11/26 07:02:29;;;;;;;17.77;5.20;;;5.30;99.90;;;;;;4217472;28;20044;-87
2022/11/26 07:04:31;;;;;;;21.83;7.30;;;5.40;99.90;;;;;;4213948;28;20048;-86
2022/11/26 07:06:32;;;;;;;20.30;5.95;;;5.40;99.90;;;;;;4212886;28;20471;-86
2022/11/26 07:08:33;;;;;;;14.52;5.60;;;5.90;99.90;;;;;;4213223;28;20427;-86
2022/11/26 07:10:35;;;;;;;21.67;5.82;;;5.40;99.90;;;;;;4212689;28;20132;-86
2022/11/26 07:12:36;;;;;;;20.33;5.68;;;5.40;99.90;;;;;;4195748;28;20048;-85
2022/11/26 07:14:37;;;;;;;20.77;5.55;;;5.40;99.90;;;;;;4214264;28;20055;-86
2022/11/26 07:16:38;;;;;;;20.98;6.53;;;5.40;99.90;;;;;;4213160;28;20131;-85
2022/11/26 07:18:39;;;;;;;24.85;5.55;;;5.40;99.90;;;;;;4213100;28;20136;-85
2022/11/26 07:20:40;;;;;;;18.25;4.95;;;5.40;99.90;;;;;;4212673;28;20463;-85
2022/11/26 07:22:42;;;;;;;17.08;4.95;;;5.40;99.90;;;;;;4214285;28;20048;-85
2022/11/26 07:24:45;;;;;;;20.88;5.60;;;5.40;99.90;;;;;;4213018;28;20052;-85
2022/11/26 07:26:47;;;;;;;17.75;5.22;;;5.40;99.90;;;;;;4213269;28;20044;-86
2022/11/26 07:28:48;;;;;;;20.05;5.43;;;5.40;99.90;;;;;;4212787;28;20048;-86
2022/11/26 07:30:50;;;;;;;19.77;5.60;;;5.40;99.90;;;;;;4195807;28;20181;-85
2022/11/26 07:32:52;;;;;;;21.67;4.82;;;5.40;99.90;;;;;;4196377;28;20044;-85
2022/11/26 07:34:52;;;;;;;19.88;5.65;;;5.40;99.90;;;;;;4214503;28;20126;-86
2022/11/26 07:36:54;;;;;;;23.67;6.32;;;5.40;99.90;;;;;;4214090;28;20044;-86
2022/11/26 07:38:59;;;;;;;25.08;6.20;;;5.40;99.90;;;;;;4216476;28;20127;-86
2022/11/26 07:41:09;;;;;;;27.45;5.60;;;5.40;99.90;;;;;;4217199;28;20079;-86
2022/11/26 07:43:10;;;;;;;;;;;5.40;99.90;;;;;;4216055;28;20067;-86
2022/11/26 07:45:11;;;;;;;19.63;5.43;;;5.40;99.90;;;;;;4218658;28;20046;-88
2022/11/26 07:47:13;;;;;;;14.18;6.25;;;5.40;99.90;;;;;;4213285;28;20408;-86
2022/11/26 07:49:14;;;;;;;18.48;5.50;;;5.50;99.90;;;;;;4232853;28;20549;-86
2022/11/26 07:51:27;;;;;;;22.92;6.80;;;4.40;99.90;;;;;;4232874;28;20462;-87
2022/11/26 07:53:32;;;;;;;21.30;6.40;;;5.50;99.90;;;;;;4233709;28;20051;-87
2022/11/26 07:55:33;;;;;;;19.63;6.53;;;5.60;99.90;;;;;;4232971;28;20055;-86
2022/11/26 07:57:33;;;;;;;22.65;5.60;;;5.60;99.90;;;;;;4234750;28;20901;-86
2022/11/26 07:59:35;;;;;;;17.75;5.57;;;5.70;99.90;;;;;;4234616;28;20043;-87
2022/11/26 08:01:37;;;;;;;19.15;5.90;;;5.70;99.90;;;;;;4234629;28;20039;-88
2022/11/26 08:03:39;;;;;;;17.42;5.55;;;5.70;99.90;;;;;;4233840;28;20506;-87
2022/11/26 08:05:44;;;;;;;24.55;7.05;;;6.00;99.90;;;;;;4216034;28;20565;-86
2022/11/26 08:07:45;;;;;;;22.27;6.60;;;5.80;99.90;;;;;;4232053;28;20481;-85
2022/11/26 08:09:47;;;;;;;13.75;5.72;;;5.80;99.90;;;;;;4231680;28;20047;-85
2022/11/26 08:11:48;;;;;;;21.48;5.80;;;5.80;99.90;;;;;;4233398;28;20093;-87
2022/11/26 08:13:57;;;;;;;23.60;7.03;;;5.80;99.90;;;;;;4215956;28;20599;-86
2022/11/26 08:15:59;;;;;;;18.83;6.00;;;5.80;99.90;;;;;;4218435;28;20048;-87
2022/11/26 08:18:00;;;;;;;17.60;5.72;;;5.90;99.90;;;;;;4216866;28;20048;-86
2022/11/26 08:20:00;;;;;;;16.17;5.25;;;5.90;99.90;;;;;;4216572;28;20076;-86
2022/11/26 08:22:01;;;;;;;18.73;5.68;;;6.10;99.90;;;;;;4215903;28;20044;-87
2022/11/26 08:24:03;;;;;;;14.55;5.75;;;6.20;99.90;;;;;;4199260;28;20044;-86
2022/11/26 08:26:13;;;;;;;14.63;5.60;;;6.10;99.90;;;;;;4216858;28;20048;-86
2022/11/26 08:28:14;;;;;;;21.20;5.90;;;6.20;99.90;;;;;;4215405;28;20462;-87
2022/11/26 08:30:14;;;;;;;14.40;6.03;;;6.20;99.90;;;;;;4220394;28;20040;-84
2022/11/26 08:32:17;;;;;;;12.23;5.28;;;6.30;99.90;;;;;;4225154;28;20051;-87
2022/11/26 08:34:18;;;;;;;18.40;5.68;;;6.30;99.90;;;;;;4215272;28;20051;-86
2022/11/26 08:36:19;;;;;;;19.67;6.03;;;6.70;99.90;;;;;;4214705;28;20081;-87
2022/11/26 08:38:20;;;;;;;15.38;5.55;;;6.30;99.90;;;;;;4248646;27;20049;-87
2022/11/26 08:40:21;;;;;;;17.40;5.93;;;6.30;99.90;;;;;;4231180;28;20039;-86
2022/11/26 08:42:22;;;;;;;14.57;5.65;;;6.30;99.90;;;;;;4232695;28;20105;-86
2022/11/26 08:44:23;;;;;;;22.00;6.78;;;6.40;99.90;;;;;;4232271;28;20122;-86
2022/11/26 08:46:24;;;;;;;14.82;5.28;;;6.50;99.90;;;;;;4215605;28;20052;-85
2022/11/26 08:48:27;;;;;;;18.63;5.13;;;7.00;99.90;;;;;;4223806;28;20087;-86
2022/11/26 08:50:27;;;;;;;18.02;5.43;;;7.00;99.90;;;;;;4221480;28;20153;-86
2022/11/26 08:52:28;;;;;;;15.90;4.82;;;7.20;99.90;;;;;;4232542;28;20108;-85
2022/11/26 08:54:29;;;;;;;23.23;5.60;;;7.50;99.90;;;;;;4198083;28;20076;-87
2022/11/26 08:56:29;;;;;;;14.93;4.50;;;7.80;99.90;;;;;;4232944;28;20407;-86
2022/11/26 08:58:35;;;;;;;16.42;5.18;;;8.00;99.90;;;;;;4215327;28;20044;-86
2022/11/26 09:00:36;;;;;;;13.55;4.63;;;8.10;99.90;;;;;;4214789;28;20060;-88
2022/11/26 09:02:36;;;;;;;14.18;5.55;;;8.10;99.90;;;;;;4216532;28;20123;-85
2022/11/26 09:04:37;;;;;;;21.20;5.50;;;8.10;99.90;;;;;;4234087;28;20050;-86
2022/11/26 09:06:39;;;;;;;13.52;3.63;;;8.10;99.90;;;;;;4234393;28;20475;-87
2022/11/26 09:11:00;;;;;;;24.90;5.78;;;8.30;99.90;;;;;;4216569;28;20542;-86
2022/11/26 09:13:00;;;;;;;18.98;4.80;;;8.40;99.90;;;;;;4215735;28;20048;-86
2022/11/26 09:15:01;;;;;;;15.52;4.90;;;8.50;99.90;;;;;;4216659;28;20569;-84
2022/11/26 09:17:02;;;;;;;12.95;4.20;;;8.70;99.90;;;;;;4216028;28;20051;-85
2022/11/26 09:19:05;;;;;;;12.77;4.75;;;8.80;99.90;;;;;;4197886;28;20059;-85
2022/11/26 09:21:06;;;;;;;19.58;4.43;;;8.80;99.90;;;;;;4231775;28;20478;-86
2022/11/26 09:23:08;;;;;;;13.50;4.55;;;8.90;99.90;;;;;;4214153;28;20451;-85
2022/11/26 09:25:09;;;;;;;13.80;5.10;;;9.00;99.90;;;;;;4231811;28;20046;-85
2022/11/26 09:27:11;;;;;;;13.07;3.95;;;9.00;99.90;;;;;;4231477;28;20081;-85
2022/11/26 09:29:13;;;;;;;16.95;4.30;;;8.90;99.90;;;;;;4213710;28;20040;-87
2022/11/26 09:31:15;;;;;;;17.65;4.18;;;9.10;99.90;;;;;;4197890;28;20059;-86
2022/11/26 09:33:16;;;;;;;15.20;4.75;;;9.10;99.90;;;;;;4232595;28;20396;-85
2022/11/26 09:35:16;;;;;;;11.05;4.05;;;9.00;99.90;;;;;;4232910;28;20047;-86
2022/11/26 09:37:18;;;;;;;16.83;4.57;;;9.00;99.90;;;;;;4232777;28;20471;-85
2022/11/26 09:39:19;;;;;;;11.55;4.15;;;8.90;99.90;;;;;;4214246;28;20055;-86
2022/11/26 09:41:46;;;;;;;14.20;4.40;;;8.90;99.90;;;;;;4213707;28;20076;-87
2022/11/26 09:44:21;;;;;;;10.95;4.15;;;8.80;99.90;;;;;;4214771;28;20487;-85
2022/11/26 09:46:32;;;;;;;14.25;3.60;;;8.60;99.90;;;;;;4216659;28;20089;-87
2022/11/26 09:48:33;;;;;;;12.80;4.25;;;8.60;99.90;;;;;;4232883;28;20547;-87
2022/11/26 09:50:37;;;;;;;20.55;4.85;;;8.60;99.90;;;;;;4232433;28;20051;-87
2022/11/26 09:52:45;;;;;;;19.00;4.18;;;8.50;99.90;;;;;;4214768;28;20054;-87
2022/11/26 09:54:48;;;;;;;11.73;3.77;;;8.60;99.90;;;;;;4214673;28;20074;-88
2022/11/26 09:56:55;;;;;;;13.50;3.90;;;8.60;99.90;;;;;;4215073;28;20782;-88
2022/11/26 09:59:00;;;;;;;19.08;5.13;;;8.50;99.90;;;;;;4214004;28;20048;-88
2022/11/26 10:01:04;;;;;;;20.08;4.95;;;8.60;99.90;;;;;;4232976;28;20519;-88
2022/11/26 10:03:11;;;;;;;14.85;4.47;;;8.60;99.90;;;;;;4232645;28;20044;-88
2022/11/26 10:05:13;;;;;;;13.98;4.40;;;8.70;99.90;;;;;;4214490;28;20072;-87
2022/11/26 10:07:26;;;;;;;21.83;4.97;;;8.80;99.90;;;;;;4215189;28;20052;-87
2022/11/26 10:09:52;;;;;;;11.55;3.83;;;8.80;99.90;;;;;;4233448;28;20039;-88
2022/11/26 10:12:03;;;;;;;12.68;4.65;;;8.90;99.90;;;;;;4214842;28;20047;-87
2022/11/26 10:14:13;;;;;;;17.50;5.15;;;9.00;99.90;;;;;;4232521;28;20044;-88
2022/11/26 10:16:31;;;;;;;12.82;5.03;;;9.00;99.90;;;;;;4215089;28;20091;-87
2022/11/26 10:18:35;;;;;;;18.77;4.22;;;9.10;99.90;;;;;;4214756;28;20052;-87
2022/11/26 10:21:01;;;;;;;13.80;4.72;;;9.00;99.90;;;;;;4232647;28;20051;-87
2022/11/26 10:23:13;;;;;;;10.73;3.78;;;8.90;99.90;;;;;;4214406;28;20047;-86
2022/11/26 10:25:21;;;;;;;9.27;3.70;;;8.80;99.90;;;;;;4213651;28;20044;-86
2022/11/26 10:27:27;;;;;;;14.87;5.40;;;8.70;99.90;;;;;;4196666;28;20412;-87
2022/11/26 10:29:39;;;;;;;14.75;4.28;;;8.60;99.90;;;;;;4238985;27;20044;-87
2022/11/26 10:31:44;;;;;;;14.32;4.88;;;8.50;99.90;;;;;;4220148;28;20445;-86
2022/11/26 10:33:56;;;;;;;13.43;4.40;;;8.50;99.90;;;;;;4231585;28;20620;-87
2022/11/26 10:35:57;;;;;;;13.70;4.50;;;8.40;99.90;;;;;;4241949;28;20476;-88
2022/11/26 10:37:58;;;;;;;14.73;5.10;;;8.40;99.90;;;;;;4232779;28;20047;-88
2022/11/26 10:40:25;;;;;;;18.85;4.95;;;8.40;99.90;;;;;;4231859;28;20062;-87
2022/11/26 10:42:26;;;;;;;11.82;4.45;;;8.40;99.90;;;;;;4232256;28;20056;-86
2022/11/26 10:44:40;;;;;;;18.58;4.95;;;8.40;99.90;;;;;;4214290;28;20130;-87
2022/11/26 10:46:41;;;;;;;17.05;4.82;;;8.40;99.90;;;;;;4213944;28;20101;-87
2022/11/26 10:48:42;;;;;;;18.63;4.70;;;8.40;99.90;;;;;;4243839;28;20451;-87